Bexhill-on-Sea, United Kingdom
Current Conditions -  °F | °C
As of 3:50 PM on Sunday 21 Dec 2014 (Local Time) from EGMD Reporting Station
Broken Clouds Broken Clouds  
Wind Chill: 52°   Ceiling: 2500
Heat Index: 52°   Visibility: 6mi
Dew Point: 46°   Wind: 23mph
Humidity: 82%   Direction: 250°WSW
Pressure: 30.3"   Gusts: NA
Location:  50.85°N, 0.47°E
Report Text: EGMD 211550Z 25020KT 9999 FEW019 BKN025 11/08 Q1026
Loading
Personal Weather Stations






























Interactive Weather Map New forecast layout! Learn more

10-Day Weather Forecast

Advertisements
Track Severe Weather on mobile